Archival Weather

Norman Y Mineta San Jose Intl

San Jose, California (KSJC)

Report from: Thursday, February 8, 2024 12:53 PM PST
Current time: Friday, June 14, 2024 6:35 AM PDT

Current weather – Weather history – Daily summaries
Weather forecast

Temperature13.9°C (57.0°F)
Dew point4.4°C (39.9°F)
Winds 3 kts (1.5 m/s, 3.5 mph) Vrb
Winds variableWinds variable
Visibility10 mi. (16.1 km)
Clouds Scattered clouds 5,000 ft. (1,524 m)
Scattered clouds 8,000 ft. (2,438 m)
Altimeter30.02 in.Hg (1017 mB)
Relative humidity53 %
Density altitude-110 ft. (-33 m)
Sea-level pressure101.6 kPa (1016 mB, 30.01 in.Hg)
Remarks Automated weather observing station with precipitation discriminator
Pressure falling more quickly
Flight conditions Visual Meteorological Conditions
Raw dataKSJC 082053Z VRB03KT 10SM SCT050 SCT080 14/04 A3002 RMK AO2 SLP163 T01390044 58002
An error has occurred. This application may no longer respond until reloaded. Reload 🗙